createdAt,value
2023-04-08T06:56:17.398Z,53.85
2023-04-08T07:31:24.862Z,48.78
2023-04-08T07:43:05.568Z,58.85
2023-04-08T07:46:09.186Z,57.63
2023-04-08T07:49:12.234Z,56.83
2023-04-08T07:57:43.759Z,52.75
2023-04-08T08:00:46.554Z,55.50
2023-04-08T08:25:33.002Z,53.78
2023-04-08T08:28:35.464Z,63.33
2023-04-08T08:31:38.042Z,65.25
2023-04-08T08:34:40.556Z,64.65
2023-04-08T08:37:43.245Z,62.55
2023-04-08T08:40:47.066Z,62.67
2023-04-08T08:43:50.037Z,53.35
2023-04-08T08:46:52.794Z,65.40
2023-04-08T08:49:55.715Z,62.83
2023-04-08T08:52:58.174Z,62.88
2023-04-08T08:56:17.152Z,59.20
2023-04-08T08:59:20.592Z,56.13
2023-04-08T09:02:28.374Z,58.03
2023-04-08T09:05:31.338Z,54.03
2023-04-08T09:08:35.441Z,53.25
2023-04-08T09:11:40.863Z,50.05
2023-04-08T09:14:43.824Z,58.00
2023-04-08T09:17:46.559Z,56.75
2023-04-08T09:20:53.407Z,54.45
2023-04-08T09:23:55.901Z,60.45
2023-04-08T09:26:59.884Z,51.83
2023-04-08T09:30:14.541Z,64.50
2023-04-08T09:33:17.418Z,51.90
2023-04-08T09:36:20.096Z,50.42
2023-04-08T09:39:22.948Z,52.80
2023-04-08T09:42:27.041Z,55.15
2023-04-08T09:45:29.848Z,54.40
2023-04-08T09:48:41.535Z,53.42
2023-04-08T09:51:50.628Z,53.00
2023-04-08T09:54:56.585Z,53.78
2023-04-08T09:58:08.950Z,55.28
2023-04-08T10:01:15.270Z,54.65
2023-04-08T10:04:21.459Z,52.88
2023-04-08T10:07:24.150Z,48.40
2023-04-08T10:10:27.486Z,47.50
2023-04-08T10:13:32.858Z,52.10
2023-04-08T10:16:35.800Z,46.35
2023-04-08T10:19:40.439Z,49.00
2023-04-08T10:22:49.839Z,51.22
2023-04-08T10:25:52.287Z,46.70
2023-04-08T10:28:56.148Z,47.45
2023-04-08T10:31:58.726Z,46.47
2023-04-08T10:35:01.641Z,50.55
2023-04-08T10:38:04.753Z,55.65
2023-04-08T10:41:07.491Z,48.25
2023-04-08T10:44:17.909Z,54.70
2023-04-08T10:47:27.334Z,53.03
2023-04-08T10:50:29.795Z,45.10
2023-04-08T10:53:33.443Z,49.70
2023-04-08T10:56:37.155Z,51.33
2023-04-08T10:59:41.390Z,56.90
2023-04-08T11:02:43.946Z,51.17
2023-04-08T11:05:47.003Z,57.50
2023-04-08T11:08:49.577Z,54.45
2023-04-08T11:11:53.641Z,61.90
2023-04-08T11:14:58.613Z,57.80
2023-04-08T11:18:02.397Z,58.95
2023-04-08T11:21:10.002Z,64.65
2023-04-08T11:24:13.588Z,73.13
2023-04-08T11:27:16.692Z,63.22
2023-04-08T11:30:20.617Z,72.10
2023-04-08T11:33:25.721Z,73.05
2023-04-08T11:36:30.237Z,71.85
2023-04-08T11:39:32.785Z,71.47
2023-04-08T11:42:35.336Z,72.25
2023-04-08T11:45:41.635Z,76.63
2023-04-08T11:48:58.628Z,67.07
2023-04-08T11:52:01.513Z,71.32
2023-04-08T11:55:06.056Z,76.28
2023-04-08T11:58:08.540Z,70.70
2023-04-08T12:01:12.431Z,62.80
2023-04-08T12:04:15.193Z,70.13
2023-04-08T12:07:18.464Z,65.65
2023-04-08T12:10:21.397Z,56.97
2023-04-08T12:13:23.906Z,58.70
2023-04-08T12:16:27.734Z,60.95
2023-04-08T12:19:31.749Z,46.15
2023-04-08T12:22:36.143Z,52.40
2023-04-08T12:25:38.647Z,45.75
2023-04-08T12:28:41.491Z,48.47
2023-04-08T12:31:45.313Z,44.85
2023-04-08T12:34:47.912Z,38.95
2023-04-08T12:37:50.687Z,46.35
2023-04-08T12:40:53.253Z,40.67
2023-04-08T12:43:55.858Z,38.33
2023-04-08T12:46:59.744Z,40.25
2023-04-08T12:50:02.285Z,36.83
2023-04-08T12:53:04.787Z,40.42
2023-04-08T12:56:07.845Z,38.03
2023-04-08T12:59:10.815Z,37.63
2023-04-08T13:02:14.748Z,37.45
2023-04-08T13:05:19.743Z,36.35
2023-04-08T13:08:26.308Z,40.35
2023-04-08T13:11:28.947Z,43.35
2023-04-08T13:14:31.499Z,44.17
2023-04-08T13:17:35.714Z,41.25
2023-04-08T13:20:38.191Z,37.72
2023-04-08T13:23:40.862Z,32.05
2023-04-08T13:26:43.295Z,40.83
2023-04-08T13:29:45.843Z,34.17
2023-04-08T13:32:49.822Z,35.10
2023-04-08T13:35:52.336Z,37.10
2023-04-08T13:38:54.964Z,37.70
2023-04-08T13:41:57.596Z,36.05
2023-04-08T13:45:00.102Z,36.67
2023-04-08T13:48:04.847Z,32.05
2023-04-08T13:51:07.402Z,36.95
2023-04-08T13:54:09.861Z,32.05
2023-04-08T13:57:12.288Z,33.88
2023-04-08T14:00:15.419Z,37.05
2023-04-08T14:03:19.517Z,35.85
2023-04-08T14:06:22.079Z,40.53
2023-04-08T14:09:25.368Z,32.15
2023-04-08T14:12:27.869Z,38.10
2023-04-08T14:15:30.552Z,33.90
2023-04-08T14:18:34.319Z,33.33
2023-04-08T14:21:37.898Z,34.38
2023-04-08T14:24:40.354Z,33.95
2023-04-08T14:27:56.666Z,33.05
2023-04-08T14:31:01.107Z,40.33
2023-04-08T14:34:05.435Z,33.63
2023-04-08T14:37:07.985Z,33.53
2023-04-08T14:40:11.559Z,34.22
2023-04-08T14:43:14.056Z,30.58
2023-04-08T14:46:16.756Z,32.97
2023-04-08T14:49:20.576Z,33.85
2023-04-08T14:52:23.194Z,30.30
2023-04-08T14:55:25.918Z,30.90
2023-04-08T14:58:28.406Z,30.25
2023-04-08T15:01:32.315Z,32.50
2023-04-08T15:04:36.216Z,34.25
2023-04-08T15:07:38.730Z,29.02
2023-04-08T15:10:41.291Z,30.48
2023-04-08T15:13:43.744Z,28.13
2023-04-08T15:16:46.233Z,31.70
2023-04-08T15:19:50.116Z,28.15
2023-04-08T15:22:53.132Z,30.33
2023-04-08T15:25:56.913Z,27.98
2023-04-08T15:28:59.801Z,29.13
2023-04-08T15:32:02.436Z,30.20
2023-04-08T15:35:07.944Z,32.72
2023-04-08T15:38:10.417Z,32.22
2023-04-08T15:41:16.974Z,33.22
2023-04-08T15:44:19.528Z,33.70
2023-04-08T15:47:21.987Z,29.17
2023-04-08T15:50:29.542Z,32.92
2023-04-08T15:53:32.975Z,28.80
2023-04-08T15:56:35.435Z,28.13
2023-04-08T15:59:37.926Z,29.02
2023-04-08T16:02:42.230Z,26.60
2023-04-08T16:05:46.263Z,26.00
2023-04-08T16:08:50.217Z,29.60
2023-04-08T16:11:53.304Z,33.65
2023-04-08T16:14:55.809Z,28.50
2023-04-08T16:17:58.256Z,33.90
2023-04-08T16:21:05.455Z,29.13
2023-04-08T16:24:07.972Z,31.75
2023-04-08T16:27:10.623Z,26.83
2023-04-08T16:30:13.615Z,27.55
2023-04-08T16:33:16.284Z,27.10
2023-04-08T16:36:21.175Z,26.98
2023-04-08T16:39:23.634Z,25.48
2023-04-08T16:42:26.113Z,32.38
2023-04-08T16:45:29.311Z,32.50
2023-04-08T16:48:31.785Z,31.92
2023-04-08T16:51:35.557Z,32.58
2023-04-08T16:54:38.004Z,31.83
2023-04-08T16:57:40.532Z,33.97
2023-04-08T17:00:43.001Z,30.58
2023-04-08T17:03:47.681Z,34.83
2023-04-08T17:06:52.135Z,32.58
2023-04-08T17:09:55.837Z,29.58
2023-04-08T17:12:58.787Z,34.83
2023-04-08T17:16:01.274Z,39.50
2023-04-08T17:19:03.737Z,34.25
2023-04-08T17:22:07.722Z,34.30
2023-04-08T17:25:11.536Z,33.30
2023-04-08T17:28:14.013Z,35.95
2023-04-08T17:31:16.824Z,33.53
2023-04-08T17:34:19.402Z,36.78
2023-04-08T17:37:23.155Z,33.60
2023-04-08T17:40:26.509Z,34.90
2023-04-08T17:43:29.029Z,36.60
2023-04-08T17:46:32.955Z,36.67
2023-04-08T17:49:35.537Z,39.58
2023-04-08T17:52:39.402Z,32.63
2023-04-08T17:55:41.838Z,35.45
2023-04-08T17:58:44.445Z,40.00
2023-04-08T18:01:47.135Z,38.88
2023-04-08T18:04:50.510Z,29.88
2023-04-08T18:07:54.348Z,34.63
2023-04-08T18:10:56.859Z,26.85
2023-04-08T18:13:59.443Z,34.67
2023-04-08T18:17:02.385Z,30.75
2023-04-08T18:20:05.512Z,34.92
2023-04-08T18:23:09.287Z,31.05
2023-04-08T18:26:11.869Z,36.20
2023-04-08T18:29:14.411Z,31.10
2023-04-08T18:32:16.852Z,34.08
2023-04-08T18:35:19.442Z,31.92
2023-04-08T18:38:23.373Z,30.75
2023-04-08T18:41:26.405Z,37.63
2023-04-08T18:44:28.941Z,35.50
2023-04-08T18:47:31.444Z,38.45
2023-04-08T18:50:33.963Z,43.20
2023-04-08T18:53:38.414Z,41.70
2023-04-08T18:56:41.066Z,36.20
2023-04-08T18:59:43.548Z,41.40
2023-04-08T19:02:46.193Z,36.20
2023-04-08T19:05:49.135Z,31.83
2023-04-08T19:08:52.912Z,30.52
2023-04-08T19:11:55.426Z,42.42
2023-04-08T19:14:57.861Z,35.40
2023-04-08T19:18:00.658Z,35.75
2023-04-08T19:21:03.552Z,37.53
2023-04-08T19:24:09.190Z,33.58
2023-04-08T19:27:13.893Z,36.17
2023-04-08T19:30:16.464Z,39.65
2023-04-08T19:33:19.512Z,43.20
2023-04-08T19:36:22.002Z,32.17
2023-04-08T19:39:27.636Z,31.98
2023-04-08T19:42:31.335Z,33.72
2023-04-08T19:45:34.489Z,36.70
2023-04-08T19:48:37.024Z,27.30
2023-04-08T19:51:39.814Z,35.78
